createdAt,value
2022-10-06T00:00:49.100Z,92.49
2022-10-06T00:01:46.076Z,92.49
2022-10-06T00:02:46.082Z,92.19
2022-10-06T00:03:46.014Z,92.09
2022-10-06T00:04:45.999Z,92.09
2022-10-06T00:05:46.030Z,91.89
2022-10-06T00:06:45.950Z,91.89
2022-10-06T00:07:45.954Z,91.89
2022-10-06T00:08:45.940Z,91.78
2022-10-06T00:09:45.925Z,91.78
2022-10-06T00:10:45.904Z,91.89
2022-10-06T00:11:45.960Z,91.78
2022-10-06T00:12:45.892Z,91.58
2022-10-06T00:13:45.884Z,91.63
2022-10-06T00:14:45.849Z,91.63
2022-10-06T00:15:45.891Z,91.73
2022-10-06T00:16:45.835Z,92.03
2022-10-06T00:17:45.874Z,91.73
2022-10-06T00:18:45.814Z,92.13
2022-10-06T00:19:48.783Z,92.33
2022-10-06T00:20:48.786Z,92.24
2022-10-06T00:21:45.765Z,92.13
2022-10-06T00:22:45.744Z,92.44
2022-10-06T00:23:45.747Z,92.44
2022-10-06T00:24:45.708Z,92.44
2022-10-06T00:25:45.697Z,92.84
2022-10-06T00:26:45.687Z,92.94
2022-10-06T00:27:45.697Z,93.05
2022-10-06T00:28:45.805Z,93.05
2022-10-06T00:29:45.639Z,93.15
2022-10-06T00:30:45.660Z,93.60
2022-10-06T00:31:45.629Z,93.49
2022-10-06T00:32:45.598Z,93.49
2022-10-06T00:33:45.589Z,93.60
2022-10-06T00:34:45.609Z,93.49
2022-10-06T00:35:45.571Z,93.70
2022-10-06T00:36:45.540Z,93.49
2022-10-06T00:37:45.532Z,93.60
2022-10-06T00:38:45.545Z,93.80
2022-10-06T00:39:48.537Z,93.95
2022-10-06T00:40:48.511Z,94.05
2022-10-06T00:41:45.473Z,94.25
2022-10-06T00:42:45.452Z,94.25
2022-10-06T00:43:45.462Z,94.15
2022-10-06T00:44:45.464Z,94.15
2022-10-06T00:45:45.415Z,94.15
2022-10-06T00:46:45.545Z,94.25
2022-10-06T00:47:45.387Z,94.15
2022-10-06T00:48:45.375Z,94.25
2022-10-06T00:49:45.395Z,94.29
2022-10-06T00:50:45.345Z,94.20
2022-10-06T00:51:45.327Z,94.29
2022-10-06T00:52:45.323Z,94.20
2022-10-06T00:53:45.337Z,94.09
2022-10-06T00:54:45.296Z,93.99
2022-10-06T00:55:45.277Z,93.99
2022-10-06T00:56:45.268Z,93.89
2022-10-06T00:57:45.268Z,93.79
2022-10-06T00:58:45.229Z,93.79
2022-10-06T00:59:48.259Z,93.83
2022-10-06T01:00:48.225Z,93.63
2022-10-06T01:01:45.271Z,93.52
2022-10-06T01:02:45.293Z,93.43
2022-10-06T01:03:45.181Z,93.43
2022-10-06T01:04:45.183Z,93.22
2022-10-06T01:05:45.128Z,93.02
2022-10-06T01:06:45.127Z,93.02
2022-10-06T01:07:45.110Z,92.82
2022-10-06T01:08:45.102Z,92.61
2022-10-06T01:09:45.083Z,92.41
2022-10-06T01:10:45.104Z,92.30
2022-10-06T01:11:45.044Z,92.25
2022-10-06T01:12:45.042Z,92.25
2022-10-06T01:13:45.033Z,92.04
2022-10-06T01:14:45.014Z,91.94
2022-10-06T01:15:45.166Z,91.64
2022-10-06T01:16:44.985Z,91.53
2022-10-06T01:17:44.967Z,91.03
2022-10-06T01:18:44.969Z,90.92
2022-10-06T01:19:47.948Z,90.83
2022-10-06T01:20:48.010Z,90.83
2022-10-06T01:21:44.927Z,90.72
2022-10-06T01:22:44.917Z,90.72
2022-10-06T01:23:44.888Z,90.72
2022-10-06T01:24:44.876Z,90.72
2022-10-06T01:25:44.868Z,90.52
2022-10-06T01:26:44.908Z,90.22
2022-10-06T01:27:44.838Z,89.91
2022-10-06T01:28:44.850Z,89.70
2022-10-06T01:29:44.799Z,89.40
2022-10-06T01:30:44.850Z,89.20
2022-10-06T01:31:44.770Z,89.20
2022-10-06T01:32:44.781Z,89.20
2022-10-06T01:33:44.784Z,89.30
2022-10-06T01:34:44.742Z,89.30
2022-10-06T01:35:44.712Z,89.20
2022-10-06T01:36:44.766Z,89.30
2022-10-06T01:37:44.693Z,89.20
2022-10-06T01:38:44.683Z,89.40
2022-10-06T01:39:47.662Z,89.40
2022-10-06T01:40:47.671Z,89.50
2022-10-06T01:41:44.644Z,89.50
2022-10-06T01:42:44.652Z,89.81
2022-10-06T01:43:44.634Z,90.01
2022-10-06T01:44:44.605Z,90.01
2022-10-06T01:45:44.616Z,90.31
2022-10-06T01:46:44.612Z,90.31
2022-10-06T01:47:44.555Z,90.42
2022-10-06T01:48:44.575Z,90.48
2022-10-06T01:49:44.536Z,90.37
2022-10-06T01:50:44.528Z,90.48
2022-10-06T01:51:44.507Z,90.58
2022-10-06T01:52:44.487Z,90.68
2022-10-06T01:53:44.528Z,90.68
2022-10-06T01:54:44.457Z,90.68
2022-10-06T01:55:44.453Z,90.88
2022-10-06T01:56:44.435Z,91.09
2022-10-06T01:57:44.420Z,91.19
2022-10-06T01:58:44.410Z,91.19
2022-10-06T01:59:50.545Z,91.09
2022-10-06T02:00:48.395Z,91.39
2022-10-06T02:01:44.456Z,91.39
2022-10-06T02:02:44.350Z,92.10
2022-10-06T02:03:44.351Z,92.10
2022-10-06T02:04:44.361Z,92.21
2022-10-06T02:05:44.312Z,92.21
2022-10-06T02:06:44.376Z,92.30
2022-10-06T02:07:44.273Z,92.35
2022-10-06T02:08:44.272Z,92.55
2022-10-06T02:09:44.283Z,92.45
2022-10-06T02:10:44.240Z,92.35
2022-10-06T02:11:44.227Z,92.55
2022-10-06T02:12:44.225Z,92.45
2022-10-06T02:13:44.224Z,92.35
2022-10-06T02:14:44.216Z,92.45
2022-10-06T02:15:44.250Z,92.55
2022-10-06T02:16:44.164Z,92.35
2022-10-06T02:17:44.145Z,92.55
2022-10-06T02:18:44.127Z,92.55
2022-10-06T02:19:47.126Z,92.49
2022-10-06T02:20:47.138Z,92.49
2022-10-06T02:21:44.089Z,92.49
2022-10-06T02:22:44.068Z,92.40
2022-10-06T02:23:44.047Z,92.40
2022-10-06T02:24:44.060Z,92.49
2022-10-06T02:25:44.031Z,92.40
2022-10-06T02:26:44.038Z,92.49
2022-10-06T02:27:44.009Z,92.60
2022-10-06T02:28:44.041Z,92.49
2022-10-06T02:29:44.012Z,92.60
2022-10-06T02:30:43.972Z,92.60
2022-10-06T02:31:43.967Z,92.74
2022-10-06T02:32:43.921Z,92.94
2022-10-06T02:33:43.902Z,92.94
2022-10-06T02:34:43.899Z,93.05
2022-10-06T02:35:43.912Z,93.15
2022-10-06T02:36:43.892Z,93.25
2022-10-06T02:37:43.873Z,93.25
2022-10-06T02:38:43.853Z,93.25
2022-10-06T02:39:46.864Z,93.25
2022-10-06T02:40:46.874Z,93.35
2022-10-06T02:41:43.804Z,93.35
2022-10-06T02:42:43.803Z,93.35
2022-10-06T02:43:43.793Z,93.35
2022-10-06T02:44:43.803Z,93.35
2022-10-06T02:45:43.746Z,93.45
2022-10-06T02:46:43.785Z,93.35
2022-10-06T02:47:43.728Z,93.40
2022-10-06T02:48:43.706Z,93.40
2022-10-06T02:49:43.757Z,93.40
2022-10-06T02:50:43.691Z,93.40
2022-10-06T02:51:43.672Z,93.40
2022-10-06T02:52:43.668Z,93.40
2022-10-06T02:53:43.641Z,93.19
2022-10-06T02:54:43.639Z,93.19
2022-10-06T02:55:43.646Z,93.29
2022-10-06T02:56:43.610Z,93.29
2022-10-06T02:57:43.581Z,93.09
2022-10-06T02:58:43.560Z,93.09
2022-10-06T02:59:46.630Z,92.99
2022-10-06T03:00:46.563Z,92.89
2022-10-06T03:01:43.632Z,92.79
2022-10-06T03:02:43.628Z,92.68
2022-10-06T03:03:43.493Z,92.58
2022-10-06T03:04:43.482Z,92.68
2022-10-06T03:05:43.494Z,92.48
2022-10-06T03:06:43.462Z,92.38
2022-10-06T03:07:43.444Z,92.38
2022-10-06T03:08:43.425Z,92.27
2022-10-06T03:09:43.456Z,92.18
2022-10-06T03:10:43.429Z,92.18
2022-10-06T03:11:43.445Z,92.01
2022-10-06T03:12:43.375Z,91.71
2022-10-06T03:13:43.357Z,91.61
2022-10-06T03:14:43.393Z,91.61
2022-10-06T03:15:43.373Z,91.40
2022-10-06T03:16:43.347Z,91.40
2022-10-06T03:17:43.307Z,91.30
2022-10-06T03:18:43.308Z,91.20
2022-10-06T03:19:46.315Z,90.99
2022-10-06T03:20:46.375Z,90.89
2022-10-06T03:21:43.257Z,90.89
2022-10-06T03:22:43.240Z,90.69
2022-10-06T03:23:43.219Z,90.59
2022-10-06T03:24:43.234Z,90.38
2022-10-06T03:25:43.246Z,90.22
2022-10-06T03:26:43.187Z,89.92
2022-10-06T03:27:43.170Z,89.92
2022-10-06T03:28:43.207Z,89.92
2022-10-06T03:29:43.140Z,90.01
2022-10-06T03:30:43.161Z,90.12
2022-10-06T03:31:43.250Z,89.92
2022-10-06T03:32:43.110Z,89.71
2022-10-06T03:33:43.109Z,89.40
2022-10-06T03:34:43.075Z,89.40
2022-10-06T03:35:43.064Z,89.71
2022-10-06T03:36:43.061Z,89.71
2022-10-06T03:37:43.046Z,89.81
2022-10-06T03:38:43.034Z,89.61
2022-10-06T03:39:46.013Z,89.30
2022-10-06T03:40:46.041Z,89.40
2022-10-06T03:41:43.014Z,89.20
2022-10-06T03:42:42.997Z,89.20
2022-10-06T03:43:42.944Z,89.20
2022-10-06T03:44:42.943Z,89.10
2022-10-06T03:45:42.935Z,89.00
2022-10-06T03:46:42.981Z,89.04
2022-10-06T03:47:42.927Z,89.04
2022-10-06T03:48:42.877Z,88.93
2022-10-06T03:49:42.867Z,88.84
2022-10-06T03:50:42.858Z,88.84
2022-10-06T03:51:42.851Z,88.93
2022-10-06T03:52:42.888Z,88.93
2022-10-06T03:53:42.819Z,88.84
2022-10-06T03:54:42.802Z,88.93
2022-10-06T03:55:42.795Z,89.14
2022-10-06T03:56:42.770Z,89.34
2022-10-06T03:57:42.762Z,89.14
2022-10-06T03:58:42.772Z,89.25
2022-10-06T03:59:45.737Z,89.25
2022-10-06T04:00:45.762Z,89.25
2022-10-06T04:01:42.855Z,89.34
2022-10-06T04:02:42.873Z,89.45
2022-10-06T04:03:42.733Z,89.55
2022-10-06T04:04:42.673Z,89.55
2022-10-06T04:05:42.671Z,89.55
2022-10-06T04:06:42.713Z,89.65
2022-10-06T04:07:42.644Z,89.75
2022-10-06T04:08:50.495Z,89.86
2022-10-06T04:09:42.658Z,90.06
2022-10-06T04:10:42.595Z,89.96
2022-10-06T04:11:42.549Z,89.90
2022-10-06T04:12:42.550Z,89.79
2022-10-06T04:13:42.561Z,89.79
2022-10-06T04:14:42.521Z,89.59
2022-10-06T04:15:42.550Z,89.69
2022-10-06T04:16:42.590Z,89.79
2022-10-06T04:17:42.491Z,89.79
2022-10-06T04:18:42.481Z,89.90
2022-10-06T04:19:45.478Z,90.10
2022-10-06T04:20:45.459Z,90.31
2022-10-06T04:21:42.444Z,90.31
2022-10-06T04:22:42.442Z,90.31
2022-10-06T04:23:42.427Z,90.41
2022-10-06T04:24:42.443Z,90.61
2022-10-06T04:25:42.373Z,90.41
2022-10-06T04:26:42.364Z,90.61
2022-10-06T04:27:42.344Z,90.61
2022-10-06T04:28:42.392Z,90.71
2022-10-06T04:29:42.324Z,90.71
2022-10-06T04:30:42.342Z,90.81
2022-10-06T04:31:42.362Z,90.71
2022-10-06T04:32:42.285Z,90.71
2022-10-06T04:33:42.276Z,90.81
2022-10-06T04:34:42.248Z,90.71
2022-10-06T04:35:42.296Z,90.71
2022-10-06T04:36:42.232Z,90.61
2022-10-06T04:37:42.216Z,90.71
2022-10-06T04:38:42.210Z,90.71
2022-10-06T04:39:45.187Z,90.81
2022-10-06T04:40:45.233Z,91.02
2022-10-06T04:41:42.184Z,91.12
2022-10-06T04:42:42.152Z,91.02
2022-10-06T04:43:42.131Z,91.22
2022-10-06T04:44:42.147Z,91.33
2022-10-06T04:45:42.176Z,91.22
2022-10-06T04:46:44.125Z,91.33
2022-10-06T04:47:42.176Z,91.47
2022-10-06T04:48:42.201Z,91.57
2022-10-06T04:49:42.108Z,91.47
2022-10-06T04:50:42.201Z,91.47
2022-10-06T04:51:42.041Z,91.57
2022-10-06T04:52:42.091Z,91.47
2022-10-06T04:53:42.065Z,91.57
2022-10-06T04:54:42.022Z,91.57
2022-10-06T04:55:42.035Z,91.78
2022-10-06T04:56:41.986Z,92.49
2022-10-06T04:57:42.006Z,92.39
2022-10-06T04:58:42.034Z,92.69
2022-10-06T04:59:44.955Z,92.59
2022-10-06T05:00:45.002Z,92.80
2022-10-06T05:01:41.894Z,92.90
2022-10-06T05:02:41.984Z,93.10
2022-10-06T05:03:41.891Z,93.21
2022-10-06T05:04:41.898Z,93.10
2022-10-06T05:05:41.827Z,93.21
2022-10-06T05:06:41.854Z,93.21
2022-10-06T05:07:41.857Z,93.21
2022-10-06T05:08:41.828Z,93.21
2022-10-06T05:09:41.777Z,93.10
2022-10-06T05:10:41.847Z,93.21
2022-10-06T05:11:41.767Z,93.21
2022-10-06T05:12:41.758Z,93.10
2022-10-06T05:13:41.739Z,93.31
2022-10-06T05:14:41.780Z,93.21
2022-10-06T05:15:41.688Z,93.15
2022-10-06T05:16:41.727Z,93.25
2022-10-06T05:17:41.694Z,93.25
2022-10-06T05:18:41.641Z,93.05
2022-10-06T05:19:44.671Z,93.05
2022-10-06T05:20:44.680Z,93.05
2022-10-06T05:21:41.621Z,92.94
2022-10-06T05:22:41.592Z,92.94
2022-10-06T05:23:41.571Z,92.94
2022-10-06T05:24:41.573Z,92.94
2022-10-06T05:25:41.572Z,92.84
2022-10-06T05:26:41.622Z,92.84
2022-10-06T05:27:41.526Z,92.84
2022-10-06T05:28:41.608Z,92.94
2022-10-06T05:29:41.554Z,92.84
2022-10-06T05:30:41.496Z,92.94
2022-10-06T05:31:41.531Z,92.84
2022-10-06T05:32:41.465Z,92.84
2022-10-06T05:33:41.416Z,92.84
2022-10-06T05:34:41.414Z,92.74
2022-10-06T05:35:41.438Z,92.74
2022-10-06T05:36:41.574Z,92.84
2022-10-06T05:37:41.435Z,92.94
2022-10-06T05:38:41.384Z,92.94
2022-10-06T05:39:44.367Z,92.94
2022-10-06T05:40:44.357Z,93.05
2022-10-06T05:41:41.296Z,93.25
2022-10-06T05:42:41.346Z,93.25
2022-10-06T05:43:41.599Z,93.25
2022-10-06T05:44:41.287Z,93.25
2022-10-06T05:45:41.355Z,93.15
2022-10-06T05:46:41.264Z,93.25
2022-10-06T05:47:41.228Z,93.25
2022-10-06T05:48:41.211Z,93.45
2022-10-06T05:49:41.221Z,93.35
2022-10-06T05:50:41.213Z,93.35
2022-10-06T05:51:41.229Z,93.60
2022-10-06T05:52:41.160Z,93.55
2022-10-06T05:53:41.142Z,93.66
2022-10-06T05:54:41.200Z,93.55
2022-10-06T05:55:41.143Z,93.55
2022-10-06T05:56:41.144Z,93.55
2022-10-06T05:57:41.092Z,93.66
2022-10-06T05:58:41.070Z,93.66
2022-10-06T05:59:44.082Z,93.86
2022-10-06T06:00:44.038Z,93.86
2022-10-06T06:01:41.130Z,93.76
2022-10-06T06:02:41.059Z,93.76
2022-10-06T06:03:41.022Z,93.76
2022-10-06T06:04:41.009Z,93.86
2022-10-06T06:05:40.977Z,93.76
2022-10-06T06:06:40.986Z,93.76
2022-10-06T06:07:40.984Z,94.07
2022-10-06T06:08:40.990Z,94.07
2022-10-06T06:09:40.923Z,94.37
2022-10-06T06:10:40.897Z,94.37
2022-10-06T06:11:40.937Z,94.37
2022-10-06T06:12:40.876Z,94.48
2022-10-06T06:13:40.879Z,94.58
2022-10-06T06:14:40.839Z,94.48
2022-10-06T06:15:40.817Z,94.58
2022-10-06T06:16:40.883Z,94.78
2022-10-06T06:17:40.856Z,94.78
2022-10-06T06:18:40.788Z,94.74
2022-10-06T06:19:43.798Z,94.74
2022-10-06T06:20:43.759Z,94.84
2022-10-06T06:21:40.739Z,94.74
2022-10-06T06:22:40.731Z,94.74
2022-10-06T06:23:40.770Z,94.74
2022-10-06T06:24:40.698Z,94.84
2022-10-06T06:25:40.747Z,94.84
2022-10-06T06:26:40.677Z,94.84
2022-10-06T06:27:40.750Z,94.74
2022-10-06T06:28:40.710Z,94.84
2022-10-06T06:29:40.712Z,94.74
2022-10-06T06:30:40.712Z,94.74
2022-10-06T06:31:40.672Z,94.84
2022-10-06T06:32:40.585Z,95.04
2022-10-06T06:33:40.613Z,94.94
2022-10-06T06:34:40.653Z,94.84
2022-10-06T06:35:40.603Z,95.25
2022-10-06T06:36:40.954Z,95.10
2022-10-06T06:37:40.516Z,95.00
2022-10-06T06:38:40.518Z,95.00
2022-10-06T06:39:43.653Z,95.10
2022-10-06T06:40:43.517Z,95.10
2022-10-06T06:41:40.576Z,95.20
2022-10-06T06:42:40.653Z,95.20
2022-10-06T06:43:40.428Z,95.20
2022-10-06T06:44:40.408Z,95.20
2022-10-06T06:45:40.458Z,95.20
2022-10-06T06:46:40.366Z,95.51
2022-10-06T06:47:40.357Z,95.51
2022-10-06T06:48:40.353Z,95.61
2022-10-06T06:49:40.330Z,95.61
2022-10-06T06:50:40.370Z,95.57
2022-10-06T06:51:40.394Z,95.67
2022-10-06T06:52:40.299Z,95.67
2022-10-06T06:53:40.281Z,95.77
2022-10-06T06:54:40.291Z,95.67
2022-10-06T06:55:40.243Z,95.77
2022-10-06T06:56:40.280Z,95.87
2022-10-06T06:57:40.244Z,95.97
2022-10-06T06:58:40.369Z,96.08
2022-10-06T06:59:43.202Z,96.08
2022-10-06T07:00:43.194Z,96.59
2022-10-06T07:01:40.273Z,96.48
2022-10-06T07:02:40.222Z,96.44
2022-10-06T07:04:41.130Z,96.34
2022-10-06T07:05:40.124Z,96.54
2022-10-06T07:06:40.094Z,96.44
2022-10-06T07:07:40.102Z,96.44
2022-10-06T07:08:40.124Z,96.44
2022-10-06T07:09:40.081Z,96.44
2022-10-06T07:10:40.060Z,96.44
2022-10-06T07:11:40.043Z,96.34
2022-10-06T07:12:40.005Z,96.44
2022-10-06T07:13:40.007Z,96.54
2022-10-06T07:14:40.056Z,96.50
2022-10-06T07:15:40.038Z,96.50
2022-10-06T07:16:39.967Z,96.60
2022-10-06T07:17:39.981Z,96.50
2022-10-06T07:18:39.936Z,96.50
2022-10-06T07:19:42.987Z,96.60
2022-10-06T07:20:42.940Z,97.00
2022-10-06T07:21:39.898Z,96.80
2022-10-06T07:22:39.888Z,96.50
2022-10-06T07:23:39.890Z,97.00
2022-10-06T07:24:39.860Z,97.00
2022-10-06T07:25:39.970Z,96.86
2022-10-06T07:26:39.847Z,96.86
2022-10-06T07:27:39.831Z,96.96
2022-10-06T07:28:39.872Z,96.76
2022-10-06T07:29:39.817Z,96.86
2022-10-06T07:30:40.835Z,97.16
2022-10-06T07:31:39.881Z,97.27
2022-10-06T07:32:39.772Z,96.96
2022-10-06T07:33:39.739Z,97.06
2022-10-06T07:34:39.730Z,97.16
2022-10-06T07:35:39.703Z,97.06
2022-10-06T07:36:39.722Z,97.37
2022-10-06T07:37:39.764Z,97.67
2022-10-06T07:38:39.666Z,97.16
2022-10-06T07:39:42.666Z,97.12
2022-10-06T07:40:50.616Z,97.12
2022-10-06T07:41:40.647Z,97.32
2022-10-06T07:42:39.625Z,97.32
2022-10-06T07:43:39.656Z,97.32
2022-10-06T07:44:39.605Z,97.22
2022-10-06T07:45:39.779Z,97.02
2022-10-06T07:46:39.549Z,97.32
2022-10-06T07:47:39.568Z,97.32
2022-10-06T07:48:39.548Z,97.32
2022-10-06T07:49:39.578Z,97.17
2022-10-06T07:50:39.510Z,97.53
2022-10-06T07:51:39.507Z,97.28
2022-10-06T07:52:39.595Z,97.48
2022-10-06T07:53:39.467Z,97.38
2022-10-06T07:54:39.635Z,97.48
2022-10-06T07:55:39.428Z,97.48
2022-10-06T07:56:39.441Z,97.38
2022-10-06T07:57:39.419Z,97.48
2022-10-06T07:58:39.399Z,97.48
2022-10-06T07:59:42.420Z,97.58
2022-10-06T08:00:42.376Z,97.44
2022-10-06T08:01:39.428Z,97.53
2022-10-06T08:02:39.372Z,97.69
2022-10-06T08:03:39.331Z,97.64
2022-10-06T08:04:39.313Z,97.64
2022-10-06T08:05:39.342Z,97.53
2022-10-06T08:06:39.280Z,97.64
2022-10-06T08:07:39.273Z,97.94
2022-10-06T08:08:39.284Z,97.64
2022-10-06T08:09:39.252Z,97.64
2022-10-06T08:10:39.245Z,97.49
2022-10-06T08:11:39.244Z,97.49
2022-10-06T08:12:39.238Z,97.60
2022-10-06T08:13:39.166Z,97.69
2022-10-06T08:14:39.169Z,97.49
2022-10-06T08:15:39.195Z,97.39
2022-10-06T08:16:39.206Z,97.89
2022-10-06T08:17:39.117Z,97.60
2022-10-06T08:18:46.547Z,97.49
2022-10-06T08:19:43.088Z,97.49
2022-10-06T08:20:42.116Z,97.69
2022-10-06T08:21:39.074Z,97.60
2022-10-06T08:22:39.108Z,97.39
2022-10-06T08:23:39.037Z,97.49
2022-10-06T08:25:04.245Z,97.49
2022-10-06T08:25:40.018Z,97.60
2022-10-06T08:26:39.009Z,97.49
2022-10-06T08:27:38.996Z,97.65
2022-10-06T08:28:39.091Z,97.75
2022-10-06T08:29:39.052Z,97.55
2022-10-06T08:30:38.950Z,97.44
2022-10-06T08:31:39.147Z,97.65
2022-10-06T08:32:38.921Z,97.44
2022-10-06T08:33:38.891Z,97.44
2022-10-06T08:34:38.908Z,97.55
2022-10-06T08:35:38.938Z,97.34
2022-10-06T08:36:38.852Z,97.44
2022-10-06T08:37:38.862Z,97.44
2022-10-06T08:38:38.850Z,97.40
2022-10-06T08:39:41.832Z,97.40
2022-10-06T08:40:41.876Z,97.30
2022-10-06T08:41:38.803Z,97.30
2022-10-06T08:42:38.785Z,97.40
2022-10-06T08:43:38.776Z,97.25
2022-10-06T08:44:38.763Z,97.60
2022-10-06T08:45:39.077Z,97.35
2022-10-06T08:46:38.797Z,97.45
2022-10-06T08:47:38.706Z,97.15
2022-10-06T08:48:38.725Z,97.05
2022-10-06T08:49:38.675Z,97.25
2022-10-06T08:50:38.666Z,97.05
2022-10-06T08:51:38.678Z,96.84
2022-10-06T08:52:38.689Z,96.84
2022-10-06T08:53:38.653Z,97.41
2022-10-06T08:54:38.621Z,97.00
2022-10-06T08:55:38.617Z,97.00
2022-10-06T08:56:38.589Z,97.20
2022-10-06T08:57:38.580Z,96.90
2022-10-06T08:58:38.609Z,97.20
2022-10-06T08:59:41.549Z,96.60
2022-10-06T09:00:41.581Z,96.70
2022-10-06T09:01:38.628Z,96.90
2022-10-06T09:02:38.555Z,97.00
2022-10-06T09:03:38.520Z,96.39
2022-10-06T09:04:38.552Z,96.30
2022-10-06T09:05:38.472Z,96.09
2022-10-06T09:06:38.445Z,96.30
2022-10-06T09:07:38.422Z,96.09
2022-10-06T09:08:38.423Z,95.58
2022-10-06T09:09:38.403Z,95.68
2022-10-06T09:10:38.594Z,96.39
2022-10-06T09:11:38.383Z,96.60
2022-10-06T09:12:38.374Z,96.66
2022-10-06T09:13:38.354Z,96.25
2022-10-06T09:14:38.345Z,96.35
2022-10-06T09:15:38.373Z,95.74
2022-10-06T09:16:38.376Z,96.04
2022-10-06T09:17:38.286Z,95.84
2022-10-06T09:18:56.519Z,95.74
2022-10-06T09:19:42.277Z,95.94
2022-10-06T09:20:41.269Z,95.84
2022-10-06T09:21:38.250Z,95.43
2022-10-06T09:22:38.287Z,95.64
2022-10-06T09:23:38.217Z,94.32
2022-10-06T09:24:38.389Z,95.23
2022-10-06T09:25:38.209Z,94.93
2022-10-06T09:26:38.179Z,95.23
2022-10-06T09:27:38.161Z,94.53
2022-10-06T09:28:38.221Z,94.22
2022-10-06T09:29:38.121Z,94.27
2022-10-06T09:30:38.121Z,94.78
2022-10-06T09:31:38.271Z,94.58
2022-10-06T09:32:38.092Z,95.04
2022-10-06T09:33:38.111Z,94.13
2022-10-06T09:34:38.063Z,94.23
2022-10-06T09:35:38.045Z,93.52
2022-10-06T09:36:38.033Z,93.02
2022-10-06T09:37:38.031Z,91.39
2022-10-06T09:38:38.003Z,92.97
2022-10-06T09:39:41.024Z,93.78
2022-10-06T09:40:40.986Z,93.33
2022-10-06T09:41:37.957Z,93.03
2022-10-06T09:42:37.943Z,92.16
2022-10-06T09:43:37.995Z,91.66
2022-10-06T09:44:37.925Z,92.16
2022-10-06T09:45:37.904Z,92.06
2022-10-06T09:46:37.906Z,90.03
2022-10-06T09:47:37.963Z,91.05
2022-10-06T09:48:37.949Z,91.05
2022-10-06T09:49:37.896Z,90.03
2022-10-06T09:50:37.858Z,90.38
2022-10-06T09:51:37.818Z,90.69
2022-10-06T09:52:37.818Z,91.30
2022-10-06T09:53:37.862Z,91.75
2022-10-06T09:54:37.783Z,92.16
2022-10-06T09:55:37.771Z,92.06
2022-10-06T09:56:37.768Z,91.41
2022-10-06T09:57:37.751Z,87.66
2022-10-06T09:58:37.721Z,89.89
2022-10-06T09:59:40.741Z,91.77
2022-10-06T10:00:40.760Z,91.12
2022-10-06T10:01:37.690Z,88.59
2022-10-06T10:02:37.696Z,86.67
2022-10-06T10:03:37.670Z,88.70
2022-10-06T10:04:37.703Z,85.76
2022-10-06T10:05:37.625Z,85.86
2022-10-06T10:06:37.632Z,84.71
2022-10-06T10:07:37.595Z,84.91
2022-10-06T10:08:37.596Z,84.55
2022-10-06T10:09:37.583Z,83.44
2022-10-06T10:10:37.626Z,83.13
2022-10-06T10:11:37.564Z,83.09
2022-10-06T10:12:37.549Z,81.27
2022-10-06T10:13:37.596Z,82.89
2022-10-06T10:14:37.557Z,81.88
2022-10-06T10:15:37.490Z,82.02
2022-10-06T10:16:37.510Z,81.37
2022-10-06T10:17:37.465Z,82.39
2022-10-06T10:18:37.472Z,80.97
2022-10-06T10:19:40.501Z,81.68
2022-10-06T10:20:40.480Z,79.05
2022-10-06T10:21:37.412Z,76.52
2022-10-06T10:22:37.409Z,75.51
2022-10-06T10:23:37.381Z,77.73
2022-10-06T10:24:37.370Z,79.11
2022-10-06T10:25:37.412Z,77.19
2022-10-06T10:26:37.390Z,76.59
2022-10-06T10:27:37.339Z,75.57
2022-10-06T10:28:37.395Z,78.64
2022-10-06T10:29:37.331Z,76.22
2022-10-06T10:30:37.304Z,76.76
2022-10-06T10:31:37.355Z,76.39
2022-10-06T10:32:37.330Z,74.91
2022-10-06T10:33:37.257Z,76.83
2022-10-06T10:34:37.277Z,76.77
2022-10-06T10:35:37.225Z,79.30
2022-10-06T10:36:37.246Z,78.49
2022-10-06T10:37:37.196Z,80.58
2022-10-06T10:38:37.256Z,79.87
2022-10-06T10:39:40.155Z,77.91
2022-10-06T10:40:40.209Z,79.13
2022-10-06T10:41:37.144Z,80.84
2022-10-06T10:42:37.158Z,80.80
2022-10-06T10:43:37.107Z,81.68
2022-10-06T10:44:37.178Z,77.73
2022-10-06T10:45:37.088Z,74.60
2022-10-06T10:46:37.127Z,77.50
2022-10-06T10:47:37.089Z,74.26
2022-10-06T10:48:37.050Z,74.66
2022-10-06T10:49:37.071Z,73.46
2022-10-06T10:50:37.050Z,73.96
2022-10-06T10:51:37.022Z,72.48
2022-10-06T10:52:37.031Z,73.08
2022-10-06T10:53:40.249Z,73.69
2022-10-06T10:54:38.062Z,71.37
2022-10-06T10:55:36.993Z,72.38
2022-10-06T10:56:36.962Z,73.59
2022-10-06T10:57:36.985Z,72.08
2022-10-06T10:58:36.912Z,72.99
2022-10-06T10:59:40.006Z,72.28
2022-10-06T11:00:40.089Z,72.28
2022-10-06T11:01:36.982Z,72.99
2022-10-06T11:02:36.905Z,73.22
2022-10-06T11:03:36.902Z,73.43
2022-10-06T11:04:36.974Z,74.33
2022-10-06T11:05:36.919Z,74.47
2022-10-06T11:06:36.868Z,76.39
2022-10-06T11:07:36.827Z,77.81
2022-10-06T11:08:36.846Z,78.25
2022-10-06T11:09:36.797Z,76.79
2022-10-06T11:10:36.766Z,78.25
2022-10-06T11:11:36.795Z,79.67
2022-10-06T11:12:36.793Z,79.22
2022-10-06T11:13:36.718Z,80.04
2022-10-06T11:14:36.709Z,77.67
2022-10-06T11:15:36.740Z,74.23
2022-10-06T11:16:36.955Z,77.06
2022-10-06T11:17:36.671Z,78.14
2022-10-06T11:18:36.655Z,74.30
2022-10-06T11:19:39.632Z,72.85
2022-10-06T11:20:39.657Z,73.25
2022-10-06T11:21:36.631Z,76.15
2022-10-06T11:22:36.672Z,76.04
2022-10-06T11:23:36.612Z,74.29
2022-10-06T11:24:36.572Z,71.26
2022-10-06T11:25:36.575Z,70.86
2022-10-06T11:26:36.564Z,72.38
2022-10-06T11:27:36.554Z,75.37
2022-10-06T11:28:36.620Z,70.83
2022-10-06T11:29:36.527Z,71.10
2022-10-06T11:30:36.524Z,68.48
2022-10-06T11:31:36.542Z,69.45
2022-10-06T11:32:36.525Z,67.74
2022-10-06T11:33:36.460Z,68.34
2022-10-06T11:34:36.507Z,68.11
2022-10-06T11:35:36.418Z,67.03
2022-10-06T11:36:36.461Z,67.43
2022-10-06T11:37:36.404Z,69.01
2022-10-06T11:38:36.389Z,69.12
2022-10-06T11:39:39.428Z,65.32
2022-10-06T11:40:39.385Z,64.21
2022-10-06T11:41:36.337Z,63.43
2022-10-06T11:42:36.339Z,65.15
2022-10-06T11:43:36.347Z,64.95
2022-10-06T11:44:36.289Z,65.12
2022-10-06T11:45:36.331Z,66.53
2022-10-06T11:46:37.499Z,64.81
2022-10-06T11:47:36.538Z,63.81
2022-10-06T11:48:36.252Z,66.22
2022-10-06T11:49:36.230Z,64.51
2022-10-06T11:50:36.262Z,64.31
2022-10-06T11:51:36.203Z,64.92
2022-10-06T11:52:36.197Z,66.73
2022-10-06T11:53:36.172Z,63.20
2022-10-06T11:54:36.183Z,64.38
2022-10-06T11:55:36.134Z,66.50
2022-10-06T11:56:36.158Z,63.00
2022-10-06T11:57:36.115Z,64.11
2022-10-06T11:58:42.345Z,64.31
2022-10-06T11:59:40.076Z,64.81
2022-10-06T12:00:39.161Z,64.18
2022-10-06T12:01:36.158Z,65.39
2022-10-06T12:02:36.211Z,65.59
2022-10-06T12:03:36.038Z,65.79
2022-10-06T12:04:36.031Z,66.80
2022-10-06T12:06:37.060Z,65.09
2022-10-06T12:07:35.992Z,64.21
2022-10-06T12:08:35.969Z,65.42
2022-10-06T12:09:35.964Z,65.52
2022-10-06T12:10:35.949Z,65.72
2022-10-06T12:11:35.943Z,64.51
2022-10-06T12:12:35.974Z,64.61
2022-10-06T12:17:36.934Z,64.92
2022-10-06T12:18:35.825Z,66.63
2022-10-06T12:19:38.824Z,65.82
2022-10-06T12:20:38.833Z,66.02
2022-10-06T12:21:35.787Z,65.22
2022-10-06T12:22:35.805Z,64.41
2022-10-06T12:23:35.817Z,65.32
2022-10-06T12:24:35.748Z,65.62
2022-10-06T12:25:35.915Z,66.42
2022-10-06T12:26:35.728Z,65.82
2022-10-06T12:27:35.792Z,66.13
2022-10-06T12:28:35.714Z,63.10
2022-10-06T12:29:35.746Z,64.81
2022-10-06T12:30:35.702Z,64.51
2022-10-06T12:31:35.659Z,64.92
2022-10-06T12:32:35.651Z,66.13
2022-10-06T12:33:35.619Z,65.42
2022-10-06T12:34:35.601Z,66.53
2022-10-06T12:35:35.672Z,66.53
2022-10-06T12:36:35.571Z,63.50
2022-10-06T12:37:35.542Z,64.11
2022-10-06T12:38:35.563Z,63.60
2022-10-06T12:39:38.523Z,64.72
2022-10-06T12:40:38.595Z,64.11
2022-10-06T12:41:35.504Z,64.31
2022-10-06T12:42:35.514Z,64.31
2022-10-06T12:43:35.467Z,63.40
2022-10-06T12:44:35.463Z,63.60
2022-10-06T12:45:35.446Z,64.11
2022-10-06T12:46:35.552Z,63.60
2022-10-06T12:47:35.425Z,64.61
2022-10-06T12:48:35.415Z,64.48
2022-10-06T12:49:35.408Z,65.22
2022-10-06T12:50:35.489Z,64.01
2022-10-06T12:51:35.413Z,63.90
2022-10-06T12:52:35.422Z,63.40
2022-10-06T12:53:35.348Z,63.70
2022-10-06T12:54:35.312Z,64.54
2022-10-06T12:55:35.307Z,65.05
2022-10-06T12:56:36.030Z,64.95
2022-10-06T12:57:35.300Z,64.75
2022-10-06T12:58:35.310Z,64.27